sensor_id;sensor_type;location;lat;lon;timestamp;pressure;altitude;pressure_sealevel;temperature;humidity
31595;BME280;18200;48.726;8.892;2022-09-27T00:00:40;95025.00;;;20.01;46.23
31595;BME280;18200;48.726;8.892;2022-09-27T00:04:42;95012.56;;;20.00;46.40
31595;BME280;18200;48.726;8.892;2022-09-27T00:08:45;95013.28;;;20.19;45.99
31595;BME280;18200;48.726;8.892;2022-09-27T00:12:45;95018.13;;;20.33;46.18
31595;BME280;18200;48.726;8.892;2022-09-27T00:16:47;95010.41;;;20.13;46.42
31595;BME280;18200;48.726;8.892;2022-09-27T00:20:48;95000.34;;;20.46;45.73
31595;BME280;18200;48.726;8.892;2022-09-27T00:24:49;95002.53;;;20.15;46.39
31595;BME280;18200;48.726;8.892;2022-09-27T00:28:50;95004.59;;;19.87;46.66
31595;BME280;18200;48.726;8.892;2022-09-27T00:32:50;94999.44;;;20.40;45.78
31595;BME280;18200;48.726;8.892;2022-09-27T00:36:52;94994.69;;;20.50;45.75
31595;BME280;18200;48.726;8.892;2022-09-27T00:40:52;94989.53;;;20.52;45.35
31595;BME280;18200;48.726;8.892;2022-09-27T00:45:03;94989.97;;;20.27;45.90
31595;BME280;18200;48.726;8.892;2022-09-27T00:49:05;94984.56;;;20.50;45.89
31595;BME280;18200;48.726;8.892;2022-09-27T00:57:08;94975.91;;;20.99;45.09
31595;BME280;18200;48.726;8.892;2022-09-27T01:01:09;94982.06;;;20.85;45.50
31595;BME280;18200;48.726;8.892;2022-09-27T01:05:11;94974.97;;;21.02;44.24
31595;BME280;18200;48.726;8.892;2022-09-27T01:09:12;94974.31;;;21.16;43.91
31595;BME280;18200;48.726;8.892;2022-09-27T01:13:19;94978.13;;;20.86;45.02
31595;BME280;18200;48.726;8.892;2022-09-27T01:17:29;94969.41;;;20.97;44.85
31595;BME280;18200;48.726;8.892;2022-09-27T01:21:39;94981.56;;;20.72;45.57
31595;BME280;18200;48.726;8.892;2022-09-27T01:38:11;94979.75;;;20.36;46.76
31595;BME280;18200;48.726;8.892;2022-09-27T01:46:57;94972.84;;;19.66;47.78
31595;BME280;18200;48.726;8.892;2022-09-27T01:51:18;94979.56;;;20.96;45.38
31595;BME280;18200;48.726;8.892;2022-09-27T01:55:23;94984.34;;;21.48;44.40
31595;BME280;18200;48.726;8.892;2022-09-27T01:59:44;94998.03;;;20.77;46.02
31595;BME280;18200;48.726;8.892;2022-09-27T02:04:13;95008.06;;;19.97;47.33
31595;BME280;18200;48.726;8.892;2022-09-27T02:08:35;95015.91;;;20.78;46.43
31595;BME280;18200;48.726;8.892;2022-09-27T02:12:46;95033.56;;;20.36;47.35
31595;BME280;18200;48.726;8.892;2022-09-27T02:16:52;95041.91;;;18.78;50.19
31595;BME280;18200;48.726;8.892;2022-09-27T02:20:59;95039.88;;;18.30;50.66
31595;BME280;18200;48.726;8.892;2022-09-27T02:29:17;95024.16;;;18.55;48.08
31595;BME280;18200;48.726;8.892;2022-09-27T02:33:27;95022.13;;;19.95;44.15
31595;BME280;18200;48.726;8.892;2022-09-27T02:37:29;95027.34;;;19.48;44.46
31595;BME280;18200;48.726;8.892;2022-09-27T02:41:29;95040.34;;;17.76;49.06
31595;BME280;18200;48.726;8.892;2022-09-27T02:45:40;95030.41;;;18.34;47.51
31595;BME280;18200;48.726;8.892;2022-09-27T02:54:03;95052.97;;;19.02;46.62
31595;BME280;18200;48.726;8.892;2022-09-27T02:58:33;95048.59;;;18.46;46.99
31595;BME280;18200;48.726;8.892;2022-09-27T03:03:04;95052.09;;;17.95;48.94
31595;BME280;18200;48.726;8.892;2022-09-27T03:07:11;95045.66;;;17.58;48.94
31595;BME280;18200;48.726;8.892;2022-09-27T03:11:12;95057.94;;;17.84;48.26
31595;BME280;18200;48.726;8.892;2022-09-27T03:15:13;95071.41;;;18.80;46.41
31595;BME280;18200;48.726;8.892;2022-09-27T03:19:33;95082.03;;;19.05;46.48
31595;BME280;18200;48.726;8.892;2022-09-27T03:23:53;95086.59;;;19.08;46.31
31595;BME280;18200;48.726;8.892;2022-09-27T03:27:54;95085.41;;;20.08;44.48
31595;BME280;18200;48.726;8.892;2022-09-27T03:31:54;95091.19;;;20.01;44.90
31595;BME280;18200;48.726;8.892;2022-09-27T03:36:23;95091.84;;;18.53;47.64
31595;BME280;18200;48.726;8.892;2022-09-27T03:40:24;95082.00;;;18.87;47.63
31595;BME280;18200;48.726;8.892;2022-09-27T03:44:24;95080.16;;;19.69;45.60
31595;BME280;18200;48.726;8.892;2022-09-27T03:48:24;95084.00;;;18.55;47.92
31595;BME280;18200;48.726;8.892;2022-09-27T03:52:25;95073.38;;;18.88;47.49
31595;BME280;18200;48.726;8.892;2022-09-27T03:56:25;95068.31;;;18.38;48.24
31595;BME280;18200;48.726;8.892;2022-09-27T04:00:26;95081.53;;;17.96;49.14
31595;BME280;18200;48.726;8.892;2022-09-27T04:04:26;95082.13;;;17.69;50.56
31595;BME280;18200;48.726;8.892;2022-09-27T04:08:26;95091.13;;;18.31;49.32
31595;BME280;18200;48.726;8.892;2022-09-27T04:12:27;95087.25;;;19.57;46.06
31595;BME280;18200;48.726;8.892;2022-09-27T04:16:27;95083.88;;;18.68;47.72
31595;BME280;18200;48.726;8.892;2022-09-27T04:20:48;95081.72;;;20.39;44.23
31595;BME280;18200;48.726;8.892;2022-09-27T04:24:48;95091.53;;;19.67;46.00
31595;BME280;18200;48.726;8.892;2022-09-27T04:28:59;95092.13;;;19.71;45.45
31595;BME280;18200;48.726;8.892;2022-09-27T04:32:59;95088.03;;;19.76;45.07
31595;BME280;18200;48.726;8.892;2022-09-27T04:37:18;95102.53;;;19.37;45.48
31595;BME280;18200;48.726;8.892;2022-09-27T04:41:22;95100.88;;;19.93;45.52
31595;BME280;18200;48.726;8.892;2022-09-27T04:45:22;95098.53;;;19.19;46.91
31595;BME280;18200;48.726;8.892;2022-09-27T04:49:22;95106.47;;;19.36;45.83
31595;BME280;18200;48.726;8.892;2022-09-27T04:53:23;95108.06;;;19.15;46.00
31595;BME280;18200;48.726;8.892;2022-09-27T04:57:23;95111.38;;;19.01;46.75
31595;BME280;18200;48.726;8.892;2022-09-27T05:01:23;95123.75;;;18.31;47.72
31595;BME280;18200;48.726;8.892;2022-09-27T05:05:24;95118.53;;;18.77;47.10
31595;BME280;18200;48.726;8.892;2022-09-27T05:09:24;95122.91;;;19.23;45.77
31595;BME280;18200;48.726;8.892;2022-09-27T05:13:27;95139.22;;;18.74;47.03
31595;BME280;18200;48.726;8.892;2022-09-27T05:17:28;95142.44;;;19.30;45.93
31595;BME280;18200;48.726;8.892;2022-09-27T05:21:46;95145.50;;;18.31;47.16
31595;BME280;18200;48.726;8.892;2022-09-27T05:25:47;95154.91;;;17.62;49.42
31595;BME280;18200;48.726;8.892;2022-09-27T05:29:48;95149.22;;;19.26;45.41
31595;BME280;18200;48.726;8.892;2022-09-27T05:33:57;95155.59;;;19.32;46.15
31595;BME280;18200;48.726;8.892;2022-09-27T05:38:10;95171.59;;;19.21;45.66
31595;BME280;18200;48.726;8.892;2022-09-27T05:42:13;95184.16;;;19.76;44.85
31595;BME280;18200;48.726;8.892;2022-09-27T05:46:15;95197.66;;;17.83;48.89
31595;BME280;18200;48.726;8.892;2022-09-27T05:50:16;95192.31;;;18.79;46.44
31595;BME280;18200;48.726;8.892;2022-09-27T05:54:17;95197.09;;;17.54;48.36
31595;BME280;18200;48.726;8.892;2022-09-27T05:58:18;95201.41;;;18.54;46.41
31595;BME280;18200;48.726;8.892;2022-09-27T06:02:23;95214.28;;;19.24;44.93
31595;BME280;18200;48.726;8.892;2022-09-27T06:06:43;95223.75;;;18.36;46.99
31595;BME280;18200;48.726;8.892;2022-09-27T06:10:44;95233.34;;;19.24;45.91
31595;BME280;18200;48.726;8.892;2022-09-27T06:14:45;95233.66;;;19.26;44.56
31595;BME280;18200;48.726;8.892;2022-09-27T06:18:53;95237.22;;;18.52;46.54
31595;BME280;18200;48.726;8.892;2022-09-27T06:22:54;95230.16;;;19.56;45.01
31595;BME280;18200;48.726;8.892;2022-09-27T06:26:55;95243.97;;;18.48;46.68
31595;BME280;18200;48.726;8.892;2022-09-27T06:31:08;95245.28;;;18.65;45.96
31595;BME280;18200;48.726;8.892;2022-09-27T06:35:21;95257.00;;;19.05;45.48
31595;BME280;18200;48.726;8.892;2022-09-27T06:39:24;95256.31;;;19.23;45.62
31595;BME280;18200;48.726;8.892;2022-09-27T06:43:44;95255.66;;;19.10;44.85
31595;BME280;18200;48.726;8.892;2022-09-27T06:48:08;95257.28;;;18.77;46.29
31595;BME280;18200;48.726;8.892;2022-09-27T06:52:18;95263.66;;;18.39;45.23
31595;BME280;18200;48.726;8.892;2022-09-27T06:56:18;95269.34;;;17.98;46.10
31595;BME280;18200;48.726;8.892;2022-09-27T07:00:22;95264.13;;;18.81;45.36
31595;BME280;18200;48.726;8.892;2022-09-27T07:04:41;95268.09;;;17.15;48.40
31595;BME280;18200;48.726;8.892;2022-09-27T07:09:09;95286.31;;;17.01;49.24
31595;BME280;18200;48.726;8.892;2022-09-27T07:13:09;95284.06;;;18.22;47.31
31595;BME280;18200;48.726;8.892;2022-09-27T07:17:10;95292.31;;;17.97;46.89
31595;BME280;18200;48.726;8.892;2022-09-27T07:21:16;95297.03;;;18.52;45.63
31595;BME280;18200;48.726;8.892;2022-09-27T07:25:16;95316.84;;;18.40;45.53
31595;BME280;18200;48.726;8.892;2022-09-27T07:29:17;95310.69;;;19.05;45.69
31595;BME280;18200;48.726;8.892;2022-09-27T07:33:18;95314.81;;;18.88;45.22
31595;BME280;18200;48.726;8.892;2022-09-27T07:37:18;95319.94;;;18.86;44.48
31595;BME280;18200;48.726;8.892;2022-09-27T07:41:20;95322.94;;;18.44;45.43
31595;BME280;18200;48.726;8.892;2022-09-27T07:45:20;95317.31;;;18.26;46.18
31595;BME280;18200;48.726;8.892;2022-09-27T07:49:37;95322.34;;;18.84;44.32
31595;BME280;18200;48.726;8.892;2022-09-27T07:53:53;95321.97;;;18.73;45.18
31595;BME280;18200;48.726;8.892;2022-09-27T07:58:28;95337.78;;;18.87;44.78
31595;BME280;18200;48.726;8.892;2022-09-27T08:02:33;95348.19;;;18.32;45.41
31595;BME280;18200;48.726;8.892;2022-09-27T08:06:33;95347.59;;;18.03;45.85
31595;BME280;18200;48.726;8.892;2022-09-27T08:10:35;95350.63;;;18.18;46.26
31595;BME280;18200;48.726;8.892;2022-09-27T08:14:36;95354.97;;;18.15;45.25
31595;BME280;18200;48.726;8.892;2022-09-27T08:18:38;95369.25;;;17.02;48.28
31595;BME280;18200;48.726;8.892;2022-09-27T08:23:04;95371.75;;;17.76;47.76
31595;BME280;18200;48.726;8.892;2022-09-27T08:27:11;95373.47;;;17.70;48.26
31595;BME280;18200;48.726;8.892;2022-09-27T08:31:32;95372.78;;;18.97;44.45
31595;BME280;18200;48.726;8.892;2022-09-27T08:35:32;95379.66;;;18.68;45.40
31595;BME280;18200;48.726;8.892;2022-09-27T08:39:33;95373.22;;;19.17;44.99
31595;BME280;18200;48.726;8.892;2022-09-27T08:47:56;95390.63;;;18.17;48.25
31595;BME280;18200;48.726;8.892;2022-09-27T08:51:59;95387.94;;;18.05;45.41
31595;BME280;18200;48.726;8.892;2022-09-27T08:56:00;95395.94;;;18.33;46.29
31595;BME280;18200;48.726;8.892;2022-09-27T09:00:10;95386.78;;;18.52;45.98
31595;BME280;18200;48.726;8.892;2022-09-27T09:04:12;95371.63;;;18.05;46.23
31595;BME280;18200;48.726;8.892;2022-09-27T09:12:34;95377.16;;;18.14;44.54
31595;BME280;18200;48.726;8.892;2022-09-27T09:17:18;95380.88;;;17.82;45.36
31595;BME280;18200;48.726;8.892;2022-09-27T09:21:47;95374.59;;;18.79;42.95
31595;BME280;18200;48.726;8.892;2022-09-27T09:26:00;95376.56;;;20.13;41.12
31595;BME280;18200;48.726;8.892;2022-09-27T09:34:19;95390.69;;;19.29;42.83
31595;BME280;18200;48.726;8.892;2022-09-27T09:38:23;95382.38;;;19.85;41.12
31595;BME280;18200;48.726;8.892;2022-09-27T09:42:28;95379.78;;;19.51;41.99
31595;BME280;18200;48.726;8.892;2022-09-27T09:50:50;95344.81;;;20.83;39.96
31595;BME280;18200;48.726;8.892;2022-09-27T09:54:53;95354.06;;;19.91;41.03
31595;BME280;18200;48.726;8.892;2022-09-27T09:58:57;95335.91;;;22.26;37.13
31595;BME280;18200;48.726;8.892;2022-09-27T10:03:03;95357.75;;;19.97;41.43
31595;BME280;18200;48.726;8.892;2022-09-27T10:07:05;95357.88;;;20.97;39.98
31595;BME280;18200;48.726;8.892;2022-09-27T10:11:16;95353.34;;;21.03;39.57
31595;BME280;18200;48.726;8.892;2022-09-27T10:15:24;95358.81;;;20.76;40.21
31595;BME280;18200;48.726;8.892;2022-09-27T10:19:27;95352.59;;;20.08;42.06
31595;BME280;18200;48.726;8.892;2022-09-27T10:23:29;95347.09;;;21.21;38.65
31595;BME280;18200;48.726;8.892;2022-09-27T10:27:40;95336.22;;;21.53;38.69
31595;BME280;18200;48.726;8.892;2022-09-27T10:31:43;95339.97;;;21.74;39.26
31595;BME280;18200;48.726;8.892;2022-09-27T10:35:52;95330.31;;;21.97;37.10
31595;BME280;18200;48.726;8.892;2022-09-27T10:40:17;95348.31;;;21.11;38.78
31595;BME280;18200;48.726;8.892;2022-09-27T10:44:27;95343.94;;;21.04;39.21
31595;BME280;18200;48.726;8.892;2022-09-27T10:48:47;95336.03;;;21.06;38.84
31595;BME280;18200;48.726;8.892;2022-09-27T10:52:47;95340.28;;;20.62;39.89
31595;BME280;18200;48.726;8.892;2022-09-27T11:01:03;95323.38;;;21.78;38.20
31595;BME280;18200;48.726;8.892;2022-09-27T11:05:35;95321.00;;;21.61;37.36
31595;BME280;18200;48.726;8.892;2022-09-27T11:09:43;95322.09;;;20.95;39.10
31595;BME280;18200;48.726;8.892;2022-09-27T11:13:57;95323.41;;;21.36;38.49
31595;BME280;18200;48.726;8.892;2022-09-27T11:18:00;95326.78;;;19.73;42.40
31595;BME280;18200;48.726;8.892;2022-09-27T11:30:16;95339.84;;;19.48;43.20
31595;BME280;18200;48.726;8.892;2022-09-27T11:34:33;95342.28;;;19.94;42.48
31595;BME280;18200;48.726;8.892;2022-09-27T11:47:05;95314.56;;;18.95;44.38
31595;BME280;18200;48.726;8.892;2022-09-27T11:55:19;95324.44;;;20.11;42.47
31595;BME280;18200;48.726;8.892;2022-09-27T12:03:39;95318.91;;;20.69;41.99
31595;BME280;18200;48.726;8.892;2022-09-27T12:12:02;95316.53;;;19.95;44.95
31595;BME280;18200;48.726;8.892;2022-09-27T12:16:04;95304.09;;;21.39;43.36
31595;BME280;18200;48.726;8.892;2022-09-27T12:24:19;95301.00;;;21.05;43.65
31595;BME280;18200;48.726;8.892;2022-09-27T12:28:46;95296.13;;;21.09;42.53
31595;BME280;18200;48.726;8.892;2022-09-27T12:33:37;95297.97;;;20.84;43.96
31595;BME280;18200;48.726;8.892;2022-09-27T12:37:12;95290.88;;;20.33;44.41
31595;BME280;18200;48.726;8.892;2022-09-27T12:41:16;95283.53;;;21.20;43.19
31595;BME280;18200;48.726;8.892;2022-09-27T12:49:47;95259.19;;;21.97;41.20
31595;BME280;18200;48.726;8.892;2022-09-27T13:06:36;95281.78;;;20.45;42.93
31595;BME280;18200;48.726;8.892;2022-09-27T13:15:04;95260.19;;;21.10;42.25
31595;BME280;18200;48.726;8.892;2022-09-27T13:19:13;95253.97;;;22.08;39.93
31595;BME280;18200;48.726;8.892;2022-09-27T13:45:01;95253.91;;;20.23;41.59
31595;BME280;18200;48.726;8.892;2022-09-27T13:53:35;95251.41;;;20.06;42.10
31595;BME280;18200;48.726;8.892;2022-09-27T13:57:40;95247.78;;;21.42;39.19
31595;BME280;18200;48.726;8.892;2022-09-27T14:01:44;95246.72;;;20.70;39.03
31595;BME280;18200;48.726;8.892;2022-09-27T14:09:52;95271.06;;;19.83;40.77
31595;BME280;18200;48.726;8.892;2022-09-27T14:13:57;95259.47;;;19.43;42.64
31595;BME280;18200;48.726;8.892;2022-09-27T14:18:03;95263.34;;;21.18;40.84
31595;BME280;18200;48.726;8.892;2022-09-27T14:22:04;95266.50;;;19.01;45.54
31595;BME280;18200;48.726;8.892;2022-09-27T14:26:46;95261.56;;;20.97;40.16
31595;BME280;18200;48.726;8.892;2022-09-27T14:30:42;95264.19;;;20.64;39.58
31595;BME280;18200;48.726;8.892;2022-09-27T14:35:12;95262.94;;;20.10;40.34
31595;BME280;18200;48.726;8.892;2022-09-27T14:39:32;95269.94;;;20.66;39.19
31595;BME280;18200;48.726;8.892;2022-09-27T14:43:41;95270.22;;;20.86;37.44
31595;BME280;18200;48.726;8.892;2022-09-27T14:47:48;95268.75;;;20.40;37.73
31595;BME280;18200;48.726;8.892;2022-09-27T14:51:52;95258.97;;;21.86;36.98
31595;BME280;18200;48.726;8.892;2022-09-27T14:55:53;95262.69;;;20.36;38.43
31595;BME280;18200;48.726;8.892;2022-09-27T14:59:54;95286.03;;;20.37;37.79
31595;BME280;18200;48.726;8.892;2022-09-27T15:04:02;95282.03;;;21.10;36.90
31595;BME280;18200;48.726;8.892;2022-09-27T15:08:04;95294.81;;;20.50;39.01
31595;BME280;18200;48.726;8.892;2022-09-27T15:12:05;95266.94;;;22.22;35.10
31595;BME280;18200;48.726;8.892;2022-09-27T15:16:07;95272.16;;;21.54;35.27
31595;BME280;18200;48.726;8.892;2022-09-27T15:20:20;95296.94;;;20.55;35.37
31595;BME280;18200;48.726;8.892;2022-09-27T15:24:35;95302.03;;;19.28;37.28
31595;BME280;18200;48.726;8.892;2022-09-27T15:28:36;95294.81;;;19.34;38.54
31595;BME280;18200;48.726;8.892;2022-09-27T15:32:39;95313.81;;;20.04;35.43
31595;BME280;18200;48.726;8.892;2022-09-27T15:44:50;95318.84;;;19.05;37.36
31595;BME280;18200;48.726;8.892;2022-09-27T15:49:13;95309.25;;;19.92;35.87
31595;BME280;18200;48.726;8.892;2022-09-27T15:53:11;95307.94;;;19.57;37.76
31595;BME280;18200;48.726;8.892;2022-09-27T15:57:12;95318.28;;;19.10;37.51
31595;BME280;18200;48.726;8.892;2022-09-27T16:01:16;95310.44;;;19.12;38.34
31595;BME280;18200;48.726;8.892;2022-09-27T16:05:17;95323.19;;;19.24;37.76
31595;BME280;18200;48.726;8.892;2022-09-27T16:09:18;95321.09;;;19.98;37.44
31595;BME280;18200;48.726;8.892;2022-09-27T16:13:18;95339.81;;;19.87;37.94
31595;BME280;18200;48.726;8.892;2022-09-27T16:17:19;95333.22;;;20.06;37.75
31595;BME280;18200;48.726;8.892;2022-09-27T16:21:19;95335.50;;;20.08;37.50
31595;BME280;18200;48.726;8.892;2022-09-27T16:25:20;95342.09;;;18.97;39.70
31595;BME280;18200;48.726;8.892;2022-09-27T16:29:21;95351.41;;;18.87;39.72
31595;BME280;18200;48.726;8.892;2022-09-27T16:33:21;95337.06;;;19.69;38.26
31595;BME280;18200;48.726;8.892;2022-09-27T16:37:21;95328.78;;;20.40;37.05
31595;BME280;18200;48.726;8.892;2022-09-27T16:41:22;95335.47;;;19.28;38.53
31595;BME280;18200;48.726;8.892;2022-09-27T16:45:23;95341.38;;;19.58;38.99
31595;BME280;18200;48.726;8.892;2022-09-27T16:49:31;95329.13;;;20.11;38.39
31595;BME280;18200;48.726;8.892;2022-09-27T16:53:50;95345.66;;;19.68;39.30
31595;BME280;18200;48.726;8.892;2022-09-27T16:57:51;95352.31;;;20.06;38.77
31595;BME280;18200;48.726;8.892;2022-09-27T17:01:51;95354.75;;;20.13;38.49
31595;BME280;18200;48.726;8.892;2022-09-27T17:05:51;95354.84;;;20.68;38.06
31595;BME280;18200;48.726;8.892;2022-09-27T17:09:51;95353.63;;;20.69;37.93
31595;BME280;18200;48.726;8.892;2022-09-27T17:13:52;95358.97;;;20.05;39.86
31595;BME280;18200;48.726;8.892;2022-09-27T17:17:53;95364.91;;;19.73;40.48
31595;BME280;18200;48.726;8.892;2022-09-27T17:21:53;95367.63;;;19.21;42.04
31595;BME280;18200;48.726;8.892;2022-09-27T17:30:30;95349.03;;;18.98;43.72
31595;BME280;18200;48.726;8.892;2022-09-27T17:34:31;95355.25;;;19.20;41.94
31595;BME280;18200;48.726;8.892;2022-09-27T17:38:31;95362.97;;;19.43;42.31
31595;BME280;18200;48.726;8.892;2022-09-27T17:42:32;95365.97;;;18.93;42.28
31595;BME280;18200;48.726;8.892;2022-09-27T17:46:34;95359.53;;;19.30;42.45
31595;BME280;18200;48.726;8.892;2022-09-27T17:50:35;95355.63;;;18.19;43.72
31595;BME280;18200;48.726;8.892;2022-09-27T17:54:35;95376.03;;;18.36;43.83
31595;BME280;18200;48.726;8.892;2022-09-27T17:58:35;95376.88;;;19.02;42.70
31595;BME280;18200;48.726;8.892;2022-09-27T18:02:36;95376.59;;;18.44;43.41
31595;BME280;18200;48.726;8.892;2022-09-27T18:06:37;95378.19;;;17.82;44.26
31595;BME280;18200;48.726;8.892;2022-09-27T18:10:39;95378.91;;;17.70;46.10
31595;BME280;18200;48.726;8.892;2022-09-27T18:14:39;95383.50;;;17.86;45.33
31595;BME280;18200;48.726;8.892;2022-09-27T18:18:40;95391.19;;;16.79;47.35
31595;BME280;18200;48.726;8.892;2022-09-27T18:22:41;95384.22;;;18.71;43.97
31595;BME280;18200;48.726;8.892;2022-09-27T18:26:41;95381.13;;;17.34;46.31
31595;BME280;18200;48.726;8.892;2022-09-27T18:30:43;95378.41;;;17.34;46.01
31595;BME280;18200;48.726;8.892;2022-09-27T18:34:44;95376.03;;;17.36;45.89
31595;BME280;18200;48.726;8.892;2022-09-27T18:38:44;95375.41;;;17.44;45.70
31595;BME280;18200;48.726;8.892;2022-09-27T18:42:45;95362.09;;;18.34;44.03
31595;BME280;18200;48.726;8.892;2022-09-27T18:46:45;95361.97;;;17.66;44.47
31595;BME280;18200;48.726;8.892;2022-09-27T18:50:46;95363.59;;;17.51;43.84
31595;BME280;18200;48.726;8.892;2022-09-27T18:54:46;95361.88;;;17.95;44.13
31595;BME280;18200;48.726;8.892;2022-09-27T18:58:46;95372.34;;;18.77;42.05
31595;BME280;18200;48.726;8.892;2022-09-27T19:02:47;95384.06;;;18.52;42.00
31595;BME280;18200;48.726;8.892;2022-09-27T19:06:48;95389.94;;;17.38;44.42
31595;BME280;18200;48.726;8.892;2022-09-27T19:10:49;95382.28;;;18.93;41.60
31595;BME280;18200;48.726;8.892;2022-09-27T19:14:49;95383.22;;;18.99;41.52
31595;BME280;18200;48.726;8.892;2022-09-27T19:18:51;95386.91;;;19.05;41.19
31595;BME280;18200;48.726;8.892;2022-09-27T19:22:52;95393.50;;;18.95;41.67
31595;BME280;18200;48.726;8.892;2022-09-27T19:26:52;95386.13;;;18.83;41.86
31595;BME280;18200;48.726;8.892;2022-09-27T19:30:54;95399.31;;;18.84;42.29
31595;BME280;18200;48.726;8.892;2022-09-27T19:34:55;95391.41;;;18.65;42.54
31595;BME280;18200;48.726;8.892;2022-09-27T19:38:55;95390.28;;;18.75;42.37
31595;BME280;18200;48.726;8.892;2022-09-27T19:42:57;95383.34;;;18.74;42.14
31595;BME280;18200;48.726;8.892;2022-09-27T19:46:58;95393.06;;;17.90;44.55
31595;BME280;18200;48.726;8.892;2022-09-27T19:50:58;95395.25;;;17.95;44.94
31595;BME280;18200;48.726;8.892;2022-09-27T19:54:59;95391.31;;;17.96;44.87
31595;BME280;18200;48.726;8.892;2022-09-27T19:58:59;95381.28;;;18.18;44.20
31595;BME280;18200;48.726;8.892;2022-09-27T20:03:00;95373.47;;;18.20;43.94
31595;BME280;18200;48.726;8.892;2022-09-27T20:07:00;95379.47;;;17.90;45.02
31595;BME280;18200;48.726;8.892;2022-09-27T20:11:02;95377.19;;;18.01;44.12
31595;BME280;18200;48.726;8.892;2022-09-27T20:15:02;95374.97;;;18.21;44.41
31595;BME280;18200;48.726;8.892;2022-09-27T20:19:03;95375.22;;;18.14;44.29
31595;BME280;18200;48.726;8.892;2022-09-27T20:23:03;95368.91;;;17.92;44.52
31595;BME280;18200;48.726;8.892;2022-09-27T20:27:03;95367.47;;;18.13;44.38
31595;BME280;18200;48.726;8.892;2022-09-27T20:31:04;95356.63;;;17.88;45.00
31595;BME280;18200;48.726;8.892;2022-09-27T20:35:04;95355.44;;;18.01;44.60
31595;BME280;18200;48.726;8.892;2022-09-27T20:39:06;95359.28;;;18.25;44.38
31595;BME280;18200;48.726;8.892;2022-09-27T20:43:07;95338.59;;;18.40;44.05
31595;BME280;18200;48.726;8.892;2022-09-27T20:47:07;95337.31;;;18.32;44.55
31595;BME280;18200;48.726;8.892;2022-09-27T20:51:11;95341.69;;;18.17;44.31
31595;BME280;18200;48.726;8.892;2022-09-27T20:55:14;95344.41;;;18.17;44.31
31595;BME280;18200;48.726;8.892;2022-09-27T20:59:16;95348.69;;;17.93;45.32
31595;BME280;18200;48.726;8.892;2022-09-27T21:03:17;95331.69;;;18.27;44.23
31595;BME280;18200;48.726;8.892;2022-09-27T21:07:17;95332.00;;;18.29;44.30
31595;BME280;18200;48.726;8.892;2022-09-27T21:11:19;95321.72;;;18.11;44.93
31595;BME280;18200;48.726;8.892;2022-09-27T21:15:19;95320.91;;;18.23;44.71
31595;BME280;18200;48.726;8.892;2022-09-27T21:19:19;95324.03;;;18.34;44.88
31595;BME280;18200;48.726;8.892;2022-09-27T21:23:20;95310.19;;;18.54;44.37
31595;BME280;18200;48.726;8.892;2022-09-27T21:27:20;95314.09;;;18.75;44.44
31595;BME280;18200;48.726;8.892;2022-09-27T21:31:27;95312.78;;;18.57;44.61
31595;BME280;18200;48.726;8.892;2022-09-27T21:35:28;95311.84;;;18.73;44.44
31595;BME280;18200;48.726;8.892;2022-09-27T21:39:29;95312.59;;;18.52;45.15
31595;BME280;18200;48.726;8.892;2022-09-27T21:43:31;95307.91;;;18.52;45.36
31595;BME280;18200;48.726;8.892;2022-09-27T21:47:32;95305.50;;;18.54;45.54
31595;BME280;18200;48.726;8.892;2022-09-27T21:51:35;95294.88;;;18.47;46.04
31595;BME280;18200;48.726;8.892;2022-09-27T21:55:35;95295.75;;;18.44;46.17
31595;BME280;18200;48.726;8.892;2022-09-27T21:59:36;95278.19;;;18.80;45.25
31595;BME280;18200;48.726;8.892;2022-09-27T22:03:36;95288.69;;;18.90;44.99
31595;BME280;18200;48.726;8.892;2022-09-27T22:07:37;95279.22;;;19.04;44.58
31595;BME280;18200;48.726;8.892;2022-09-27T22:11:38;95274.19;;;19.24;44.31
31595;BME280;18200;48.726;8.892;2022-09-27T22:15:38;95264.72;;;19.07;44.80
31595;BME280;18200;48.726;8.892;2022-09-27T22:19:39;95262.41;;;19.27;43.88
31595;BME280;18200;48.726;8.892;2022-09-27T22:23:39;95252.66;;;19.17;44.48
31595;BME280;18200;48.726;8.892;2022-09-27T22:27:40;95241.34;;;19.27;44.16
31595;BME280;18200;48.726;8.892;2022-09-27T22:31:40;95235.09;;;19.09;44.57
31595;BME280;18200;48.726;8.892;2022-09-27T22:35:47;95222.81;;;19.04;44.81
31595;BME280;18200;48.726;8.892;2022-09-27T22:39:47;95209.34;;;19.01;45.05
31595;BME280;18200;48.726;8.892;2022-09-27T22:43:48;95202.84;;;18.98;45.14
31595;BME280;18200;48.726;8.892;2022-09-27T22:47:48;95198.69;;;18.85;45.25
31595;BME280;18200;48.726;8.892;2022-09-27T22:51:48;95202.41;;;19.09;45.10
31595;BME280;18200;48.726;8.892;2022-09-27T22:55:56;95191.53;;;19.09;45.13
31595;BME280;18200;48.726;8.892;2022-09-27T22:59:57;95174.22;;;18.94;46.19
31595;BME280;18200;48.726;8.892;2022-09-27T23:03:57;95180.84;;;18.84;46.10
31595;BME280;18200;48.726;8.892;2022-09-27T23:07:57;95168.31;;;18.55;46.88
31595;BME280;18200;48.726;8.892;2022-09-27T23:11:58;95161.69;;;18.96;46.04
31595;BME280;18200;48.726;8.892;2022-09-27T23:15:59;95163.84;;;18.71;46.68
31595;BME280;18200;48.726;8.892;2022-09-27T23:19:59;95144.75;;;18.62;46.82
31595;BME280;18200;48.726;8.892;2022-09-27T23:24:01;95146.97;;;18.76;46.34
31595;BME280;18200;48.726;8.892;2022-09-27T23:28:02;95135.50;;;18.90;46.54
31595;BME280;18200;48.726;8.892;2022-09-27T23:32:03;95136.78;;;19.07;46.18
31595;BME280;18200;48.726;8.892;2022-09-27T23:36:04;95122.84;;;18.96;46.49
31595;BME280;18200;48.726;8.892;2022-09-27T23:40:04;95117.38;;;18.96;46.47
31595;BME280;18200;48.726;8.892;2022-09-27T23:44:05;95112.28;;;19.07;46.15
31595;BME280;18200;48.726;8.892;2022-09-27T23:48:05;95093.91;;;19.38;45.98
31595;BME280;18200;48.726;8.892;2022-09-27T23:52:06;95076.16;;;19.15;46.24
31595;BME280;18200;48.726;8.892;2022-09-27T23:56:07;95078.44;;;19.26;46.50
